Terminal Aerodrome Forecast
Issued by NWS

Home | Current Version | Previous Version | Text Only | Print | Product List | Glossary On
Versions: 1 2 3 4 5 6 7 8 9 10 11 12 13 14 15 16 17 18 19
539
FTUS41 KAKQ 091734
TAFPHF
TAF
KPHF 091734Z 0918/1018 27010KT P6SM SCT025 BKN050
      TEMPO 0918/0920 BKN030
     FM092300 27009KT P6SM SCT050 BKN100=

USA.gov is the U.S. government's official web portal to all federal, state and local government web resources and services.